createdAt,value
2023-03-12T00:01:45.040Z,30.58
2023-03-12T00:04:16.260Z,30.57
2023-03-12T00:06:46.728Z,30.64
2023-03-12T00:09:17.111Z,30.64
2023-03-12T00:11:47.603Z,30.71
2023-03-12T00:14:18.079Z,30.71
2023-03-12T00:16:48.548Z,30.72
2023-03-12T00:19:21.401Z,30.75
2023-03-12T00:22:02.096Z,30.75
2023-03-12T00:24:35.463Z,30.73
2023-03-12T00:27:10.372Z,30.75
2023-03-12T00:29:41.965Z,30.74
2023-03-12T00:32:15.088Z,30.73
2023-03-12T00:34:45.372Z,30.75
2023-03-12T00:37:16.775Z,30.74
2023-03-12T00:39:47.044Z,30.74
2023-03-12T00:42:18.039Z,30.76
2023-03-12T00:44:48.436Z,30.78
2023-03-12T00:47:20.546Z,30.77
2023-03-12T00:49:51.709Z,30.78
2023-03-12T00:52:24.487Z,30.75
2023-03-12T00:54:55.029Z,30.78
2023-03-12T00:57:25.437Z,30.77
2023-03-12T00:59:57.652Z,30.76
2023-03-12T01:02:29.978Z,30.76
2023-03-12T01:05:00.236Z,30.75
2023-03-12T01:07:32.410Z,30.78
2023-03-12T01:10:02.929Z,30.80
2023-03-12T01:12:33.843Z,30.82
2023-03-12T01:15:04.564Z,30.75
2023-03-12T01:17:35.202Z,30.74
2023-03-12T01:20:07.329Z,30.76
2023-03-12T01:22:38.758Z,30.76
2023-03-12T01:25:08.677Z,30.81
2023-03-12T01:27:40.759Z,30.79
2023-03-12T01:30:11.901Z,30.79
2023-03-12T01:32:42.268Z,30.77
2023-03-12T01:35:16.032Z,30.79
2023-03-12T01:37:46.268Z,30.78
2023-03-12T01:40:23.371Z,30.77
2023-03-12T01:43:02.773Z,30.79
2023-03-12T01:46:10.534Z,30.78
2023-03-12T01:48:48.400Z,30.77
2023-03-12T01:51:21.787Z,30.78
2023-03-12T01:53:58.648Z,30.79
2023-03-12T01:56:33.143Z,30.78
2023-03-12T01:59:08.933Z,30.78
2023-03-12T02:01:44.295Z,30.76
2023-03-12T02:04:18.786Z,30.79
2023-03-12T02:07:00.438Z,30.81
2023-03-12T02:09:32.295Z,30.83
2023-03-12T02:12:05.976Z,30.86
2023-03-12T02:14:37.149Z,30.87
2023-03-12T02:17:08.730Z,30.90
2023-03-12T02:19:54.031Z,30.90
2023-03-12T02:22:24.863Z,30.92
2023-03-12T02:25:17.636Z,30.98
2023-03-12T02:27:49.006Z,31.08
2023-03-12T02:30:19.087Z,31.08
2023-03-12T02:32:51.237Z,31.09
2023-03-12T02:35:21.561Z,31.09
2023-03-12T02:37:57.618Z,31.08
2023-03-12T02:40:27.757Z,31.13
2023-03-12T02:42:59.164Z,31.08
2023-03-12T02:45:32.119Z,31.11
2023-03-12T02:48:07.761Z,31.09
2023-03-12T02:50:38.366Z,31.02
2023-03-12T02:53:08.635Z,31.08
2023-03-12T02:55:38.950Z,31.05
2023-03-12T02:58:09.525Z,31.11
2023-03-12T03:00:40.285Z,31.05
2023-03-12T03:03:10.731Z,31.04
2023-03-12T03:05:41.162Z,31.05
2023-03-12T03:08:12.294Z,31.13
2023-03-12T03:10:48.692Z,31.14
2023-03-12T03:13:19.422Z,31.13
2023-03-12T03:15:51.967Z,31.14
2023-03-12T03:18:22.207Z,31.18
2023-03-12T03:21:11.210Z,31.21
2023-03-12T03:23:42.928Z,31.23
2023-03-12T03:26:13.911Z,31.25
2023-03-12T03:31:12.118Z,31.25
2023-03-12T03:33:44.152Z,31.27
2023-03-12T03:36:19.153Z,31.26
2023-03-12T03:39:04.799Z,31.31
2023-03-12T03:41:37.815Z,31.29
2023-03-12T03:44:10.114Z,31.34
2023-03-12T03:46:44.787Z,31.32
2023-03-12T03:49:19.534Z,31.30
2023-03-12T03:51:54.544Z,31.33
2023-03-12T03:54:34.267Z,31.33
2023-03-12T03:57:05.734Z,31.34
2023-03-12T03:59:36.034Z,31.35
2023-03-12T04:02:09.230Z,31.35
2023-03-12T04:04:44.369Z,31.40
2023-03-12T04:07:18.085Z,31.43
2023-03-12T04:09:50.094Z,31.44
2023-03-12T04:12:20.613Z,31.49
2023-03-12T04:14:53.997Z,31.54
2023-03-12T04:17:25.012Z,31.57
2023-03-12T04:19:55.521Z,31.59
2023-03-12T04:22:25.965Z,31.61
2023-03-12T04:24:56.324Z,31.66
2023-03-12T04:27:27.469Z,31.77
2023-03-12T04:29:59.742Z,31.70
2023-03-12T04:32:30.231Z,31.69
2023-03-12T04:35:02.073Z,31.70
2023-03-12T04:37:39.307Z,31.82
2023-03-12T04:40:14.921Z,31.81
2023-03-12T04:42:45.366Z,31.89
2023-03-12T04:45:20.129Z,31.82
2023-03-12T04:47:50.839Z,31.79
2023-03-12T04:50:21.452Z,31.89
2023-03-12T04:52:54.288Z,32.00
2023-03-12T04:55:29.111Z,31.91
2023-03-12T04:57:59.501Z,31.93
2023-03-12T05:00:29.863Z,32.01
2023-03-12T05:03:00.356Z,32.10
2023-03-12T05:05:30.751Z,32.08
2023-03-12T05:08:04.470Z,32.10
2023-03-12T05:10:36.771Z,32.16
2023-03-12T05:13:10.376Z,32.15
2023-03-12T05:15:40.785Z,31.97
2023-03-12T05:18:13.271Z,31.95
2023-03-12T05:20:46.001Z,31.91
2023-03-12T05:23:16.521Z,31.91
2023-03-12T05:25:49.054Z,31.85
2023-03-12T05:28:23.164Z,31.87
2023-03-12T05:30:55.279Z,31.88
2023-03-12T05:33:30.937Z,31.92
2023-03-12T05:36:06.647Z,31.89
2023-03-12T05:38:37.881Z,31.87
2023-03-12T05:41:10.892Z,31.89
2023-03-12T05:43:43.222Z,31.91
2023-03-12T05:46:14.057Z,31.91
2023-03-12T05:48:46.732Z,31.88
2023-03-12T05:51:19.179Z,31.96
2023-03-12T05:53:51.736Z,32.06
2023-03-12T05:56:45.725Z,32.22
2023-03-12T05:59:17.413Z,32.28
2023-03-12T06:02:02.197Z,32.31
2023-03-12T06:04:34.319Z,32.29
2023-03-12T06:07:04.529Z,32.39
2023-03-12T06:09:37.861Z,32.46
2023-03-12T06:12:09.100Z,32.42
2023-03-12T06:14:39.921Z,32.41
2023-03-12T06:17:10.457Z,32.44
2023-03-12T06:19:42.890Z,32.52
2023-03-12T06:22:13.187Z,32.46
2023-03-12T06:24:45.443Z,32.48
2023-03-12T06:27:27.992Z,32.58
2023-03-12T06:29:58.201Z,32.60
2023-03-12T06:32:28.510Z,32.62
2023-03-12T06:35:01.347Z,32.72
2023-03-12T06:37:32.820Z,32.71
2023-03-12T06:40:03.249Z,32.61
2023-03-12T06:42:39.785Z,32.49
2023-03-12T06:45:15.411Z,32.43
2023-03-12T06:47:49.298Z,32.42
2023-03-12T06:50:21.839Z,32.41
2023-03-12T06:52:52.038Z,32.36
2023-03-12T06:55:25.420Z,32.31
2023-03-12T06:57:55.609Z,32.30
2023-03-12T07:00:31.302Z,32.25
2023-03-12T07:03:01.639Z,32.27
2023-03-12T07:05:32.252Z,32.26
2023-03-12T07:08:03.901Z,32.26
2023-03-12T07:10:39.546Z,32.30
2023-03-12T07:13:16.336Z,32.30
2023-03-12T07:18:46.413Z,32.33
2023-03-12T07:21:19.029Z,32.29
2023-03-12T07:23:52.427Z,32.27
2023-03-12T07:26:26.138Z,32.29
2023-03-12T07:28:59.505Z,32.34
2023-03-12T07:31:32.061Z,32.29
2023-03-12T07:34:02.820Z,32.30
2023-03-12T07:36:34.673Z,32.35
2023-03-12T07:39:05.095Z,32.37
2023-03-12T07:41:35.449Z,32.39
2023-03-12T07:44:05.737Z,32.41
2023-03-12T07:46:37.930Z,32.45
2023-03-12T07:49:11.266Z,32.44
2023-03-12T07:51:41.555Z,32.39
2023-03-12T07:54:14.312Z,32.46
2023-03-12T07:56:45.037Z,32.48
2023-03-12T07:59:15.567Z,32.48
2023-03-12T08:01:46.488Z,32.50
2023-03-12T08:04:17.610Z,32.48
2023-03-12T08:06:48.095Z,32.48
2023-03-12T08:09:21.676Z,32.54
2023-03-12T08:12:01.370Z,32.55
2023-03-12T08:14:33.992Z,32.54
2023-03-12T08:17:04.543Z,32.59
2023-03-12T08:19:37.939Z,32.57
2023-03-12T08:22:09.331Z,32.56
2023-03-12T08:24:41.214Z,32.56
2023-03-12T08:27:13.346Z,32.61
2023-03-12T08:29:46.343Z,32.57
2023-03-12T08:32:18.765Z,32.61
2023-03-12T08:34:49.222Z,32.62
2023-03-12T08:37:23.229Z,32.56
2023-03-12T08:39:53.487Z,32.54
2023-03-12T08:42:26.930Z,32.53
2023-03-12T08:45:00.040Z,32.54
2023-03-12T08:47:31.638Z,32.59
2023-03-12T08:50:02.258Z,32.49
2023-03-12T08:52:34.367Z,32.45
2023-03-12T08:55:06.458Z,32.43
2023-03-12T08:57:36.991Z,32.40
2023-03-12T09:00:13.419Z,32.39
2023-03-12T09:02:46.836Z,32.39
2023-03-12T09:05:17.236Z,32.41
2023-03-12T09:07:47.778Z,32.37
2023-03-12T09:10:20.113Z,32.40
2023-03-12T09:12:50.297Z,32.35
2023-03-12T09:15:21.155Z,32.33
2023-03-12T09:17:51.460Z,32.30
2023-03-12T09:20:22.232Z,32.30
2023-03-12T09:22:57.408Z,32.29
2023-03-12T09:25:28.012Z,32.29
2023-03-12T09:28:00.028Z,32.27
2023-03-12T09:30:32.581Z,32.28
2023-03-12T09:33:07.571Z,32.27
2023-03-12T09:35:41.559Z,32.32
2023-03-12T09:38:21.574Z,32.33
2023-03-12T09:40:52.089Z,32.33
2023-03-12T09:43:34.771Z,32.34
2023-03-12T09:46:06.882Z,32.34
2023-03-12T09:48:47.529Z,32.33
2023-03-12T09:51:24.700Z,32.34
2023-03-12T09:54:02.426Z,32.34
2023-03-12T09:56:38.961Z,32.30
2023-03-12T09:59:15.254Z,32.28
2023-03-12T10:01:54.962Z,32.30
2023-03-12T10:04:59.912Z,32.33
2023-03-12T10:07:50.309Z,32.29
2023-03-12T10:10:42.640Z,32.33
2023-03-12T10:13:49.926Z,32.32
2023-03-12T10:16:43.520Z,32.32
2023-03-12T10:19:43.003Z,32.30
2023-03-12T10:23:09.177Z,32.30
2023-03-12T10:26:11.182Z,32.31
2023-03-12T10:29:02.241Z,32.30
2023-03-12T10:31:51.465Z,32.28
2023-03-12T10:34:28.865Z,32.28
2023-03-12T10:37:05.615Z,32.31
2023-03-12T10:39:35.921Z,32.31
2023-03-12T10:42:25.633Z,32.34
2023-03-12T10:45:39.097Z,32.30
2023-03-12T10:48:12.286Z,32.28
2023-03-12T10:50:43.938Z,32.30
2023-03-12T10:53:24.681Z,32.29
2023-03-12T10:56:14.178Z,32.25
2023-03-12T10:58:49.108Z,32.24
2023-03-12T11:01:22.767Z,32.20
2023-03-12T11:03:54.267Z,32.21
2023-03-12T11:06:28.513Z,32.24
2023-03-12T11:09:16.673Z,32.17
2023-03-12T11:11:51.951Z,32.20
2023-03-12T11:14:26.869Z,32.16
2023-03-12T11:16:58.185Z,32.11
2023-03-12T11:19:34.651Z,32.05
2023-03-12T11:22:10.071Z,32.01
2023-03-12T11:24:58.750Z,32.09
2023-03-12T11:27:43.751Z,32.01
2023-03-12T11:30:22.758Z,31.94
2023-03-12T11:32:53.801Z,31.93
2023-03-12T11:35:33.986Z,31.93
2023-03-12T11:38:09.875Z,31.91
2023-03-12T11:41:07.791Z,31.88
2023-03-12T11:43:49.533Z,31.85
2023-03-12T11:46:19.580Z,31.81
2023-03-12T11:49:02.183Z,31.82
2023-03-12T11:51:38.701Z,31.77
2023-03-12T11:54:30.446Z,31.76
2023-03-12T11:57:25.140Z,31.75
2023-03-12T12:00:25.084Z,31.81
2023-03-12T12:03:19.268Z,31.77
2023-03-12T12:05:59.951Z,31.81
2023-03-12T12:08:50.171Z,31.84
2023-03-12T12:11:30.246Z,31.82
2023-03-12T12:14:09.145Z,31.80
2023-03-12T12:17:00.366Z,31.73
2023-03-12T12:19:55.808Z,31.74
2023-03-12T12:22:41.920Z,31.74
2023-03-12T12:25:26.299Z,31.74
2023-03-12T12:28:20.560Z,31.70
2023-03-12T12:31:07.737Z,31.71
2023-03-12T12:34:19.440Z,31.57
2023-03-12T12:36:53.853Z,31.66
2023-03-12T12:39:40.433Z,31.59
2023-03-12T12:42:17.772Z,31.60
2023-03-12T12:44:53.550Z,31.61
2023-03-12T12:47:39.994Z,31.60
2023-03-12T12:50:16.582Z,31.52
2023-03-12T12:52:48.681Z,31.48
2023-03-12T12:55:29.315Z,31.53
2023-03-12T12:58:17.492Z,31.57
2023-03-12T13:00:52.424Z,31.51
2023-03-12T13:03:25.278Z,31.50
2023-03-12T13:05:57.606Z,31.50
2023-03-12T13:08:46.447Z,31.48
2023-03-12T13:11:20.811Z,31.55
2023-03-12T13:14:15.612Z,31.51
2023-03-12T13:16:48.762Z,31.54
2023-03-12T13:19:18.784Z,31.43
2023-03-12T13:22:25.138Z,31.42
2023-03-12T13:25:13.792Z,31.33
2023-03-12T13:27:47.256Z,31.39
2023-03-12T13:30:35.393Z,31.41
2023-03-12T13:33:14.921Z,31.47
2023-03-12T13:35:50.002Z,31.61
2023-03-12T13:38:39.528Z,31.58
2023-03-12T13:41:10.624Z,31.59
2023-03-12T13:43:49.969Z,31.62
2023-03-12T13:46:41.631Z,31.66
2023-03-12T13:49:18.157Z,31.62
2023-03-12T13:51:57.945Z,31.57
2023-03-12T13:54:36.090Z,31.56
2023-03-12T13:57:14.212Z,31.60
2023-03-12T13:59:48.898Z,31.58
2023-03-12T14:02:34.707Z,31.58
2023-03-12T14:05:13.059Z,31.57
2023-03-12T14:08:09.206Z,31.57
2023-03-12T14:10:47.115Z,31.53
2023-03-12T14:14:06.499Z,31.50
2023-03-12T14:16:41.701Z,31.52
2023-03-12T14:19:17.207Z,31.56
2023-03-12T14:21:50.063Z,31.47
2023-03-12T14:24:37.784Z,31.49
2023-03-12T14:27:14.283Z,31.53
2023-03-12T14:29:49.345Z,31.49
2023-03-12T14:32:36.897Z,31.50
2023-03-12T14:36:45.273Z,31.58
2023-03-12T14:39:59.928Z,31.55
2023-03-12T14:42:36.476Z,31.62
2023-03-12T14:45:17.438Z,31.61
2023-03-12T14:47:56.025Z,31.57
2023-03-12T14:50:39.932Z,31.61
2023-03-12T14:53:16.111Z,31.61
2023-03-12T14:55:46.406Z,31.61
2023-03-12T14:58:22.854Z,31.61
2023-03-12T15:01:09.603Z,31.58
2023-03-12T15:03:48.499Z,31.57
2023-03-12T15:06:35.223Z,31.63
2023-03-12T15:09:11.608Z,31.62
2023-03-12T15:11:43.090Z,31.63
2023-03-12T15:14:18.725Z,31.66
2023-03-12T15:16:49.157Z,31.64
2023-03-12T15:19:25.852Z,31.62
2023-03-12T15:21:56.826Z,31.62
2023-03-12T15:24:28.038Z,31.57
2023-03-12T15:26:58.255Z,31.55
2023-03-12T15:29:30.420Z,31.55
2023-03-12T15:32:02.567Z,31.55
2023-03-12T15:34:39.845Z,31.56
2023-03-12T15:37:35.091Z,31.54
2023-03-12T15:40:11.238Z,31.53
2023-03-12T15:42:46.223Z,31.52
2023-03-12T15:45:43.046Z,31.55
2023-03-12T15:48:36.389Z,31.53
2023-03-12T15:51:18.310Z,31.54
2023-03-12T15:53:48.687Z,31.53
2023-03-12T15:56:21.340Z,31.54
2023-03-12T15:59:05.440Z,31.54
2023-03-12T16:01:51.447Z,31.52
2023-03-12T16:04:23.132Z,31.52
2023-03-12T16:06:58.206Z,31.53
2023-03-12T16:09:31.905Z,31.54
2023-03-12T16:12:02.339Z,31.51
2023-03-12T16:14:36.864Z,31.51
2023-03-12T16:17:08.704Z,31.49
2023-03-12T16:19:39.031Z,31.49
2023-03-12T16:22:09.577Z,31.48
2023-03-12T16:24:42.765Z,31.49
2023-03-12T16:27:23.698Z,31.46
2023-03-12T16:30:02.185Z,31.49
2023-03-12T16:32:37.245Z,31.50
2023-03-12T16:35:21.193Z,31.48
2023-03-12T16:37:53.748Z,31.45
2023-03-12T16:40:33.450Z,31.47
2023-03-12T16:43:08.188Z,31.48
2023-03-12T16:45:39.878Z,31.50
2023-03-12T16:48:19.416Z,31.47
2023-03-12T16:50:55.708Z,31.46
2023-03-12T16:53:37.867Z,31.46
2023-03-12T16:56:09.309Z,31.47
2023-03-12T16:58:39.615Z,31.49
2023-03-12T17:01:15.806Z,31.46
2023-03-12T17:03:50.519Z,31.44
2023-03-12T17:06:35.740Z,31.44
2023-03-12T17:09:12.996Z,31.43
2023-03-12T17:11:43.548Z,31.43
2023-03-12T17:14:24.399Z,31.43
2023-03-12T17:16:56.239Z,31.39
2023-03-12T17:19:26.666Z,31.40
2023-03-12T17:21:59.897Z,31.40
2023-03-12T17:24:30.665Z,31.39
2023-03-12T17:27:03.197Z,31.40
2023-03-12T17:29:36.376Z,31.39
2023-03-12T17:32:06.707Z,31.38
2023-03-12T17:34:37.179Z,31.38
2023-03-12T17:37:07.709Z,31.39
2023-03-12T17:39:38.657Z,31.34
2023-03-12T17:42:09.072Z,31.38
2023-03-12T17:44:45.683Z,31.41
2023-03-12T17:47:18.800Z,31.38
2023-03-12T17:49:51.937Z,31.39
2023-03-12T17:52:22.353Z,31.35
2023-03-12T17:54:52.431Z,31.34
2023-03-12T17:57:22.418Z,31.36
2023-03-12T17:59:54.301Z,31.37
2023-03-12T18:02:25.046Z,31.38
2023-03-12T18:04:55.260Z,31.38
2023-03-12T18:07:25.525Z,31.36
2023-03-12T18:09:55.589Z,31.37
2023-03-12T18:12:25.670Z,31.37
2023-03-12T18:14:56.998Z,31.36
2023-03-12T18:17:27.307Z,31.35
2023-03-12T18:19:57.376Z,31.36
2023-03-12T18:22:28.699Z,31.36
2023-03-12T18:24:58.873Z,31.33
2023-03-12T18:27:28.892Z,31.33
2023-03-12T18:29:58.912Z,31.29
2023-03-12T18:32:28.912Z,31.32
2023-03-12T18:35:00.002Z,31.29
2023-03-12T18:37:30.391Z,31.31
2023-03-12T18:40:00.906Z,31.31
2023-03-12T18:42:31.076Z,31.31
2023-03-12T18:45:01.301Z,31.33
2023-03-12T18:47:31.597Z,31.29
2023-03-12T18:50:01.818Z,31.29
2023-03-12T18:53:02.601Z,31.28
2023-03-12T18:55:34.496Z,31.28
2023-03-12T18:58:04.411Z,31.26
2023-03-12T19:00:34.542Z,31.28
2023-03-12T19:03:04.593Z,31.27
2023-03-12T19:05:34.821Z,31.25
2023-03-12T19:08:08.338Z,31.24
2023-03-12T19:10:38.958Z,31.24
2023-03-12T19:13:09.345Z,31.22
2023-03-12T19:15:41.400Z,31.23
2023-03-12T19:18:11.837Z,31.21
2023-03-12T19:20:41.840Z,31.20
2023-03-12T19:23:11.803Z,31.21
2023-03-12T19:25:41.750Z,31.21
2023-03-12T19:28:11.847Z,31.21
2023-03-12T19:30:41.785Z,31.20
2023-03-12T19:33:11.783Z,31.22
2023-03-12T19:35:43.173Z,31.21
2023-03-12T19:38:13.346Z,31.22
2023-03-12T19:40:43.243Z,31.23
2023-03-12T19:43:13.055Z,31.22
2023-03-12T19:45:42.979Z,31.22
2023-03-12T19:48:14.909Z,31.18
2023-03-12T19:50:47.167Z,31.18
2023-03-12T19:53:20.001Z,31.14
2023-03-12T19:55:53.244Z,31.13
2023-03-12T19:58:24.236Z,31.13
2023-03-12T20:00:54.420Z,31.12
2023-03-12T20:03:26.724Z,31.11
2023-03-12T20:05:56.880Z,31.09
2023-03-12T20:08:32.453Z,31.10
2023-03-12T20:11:11.771Z,31.06
2023-03-12T20:13:41.736Z,31.04
2023-03-12T20:16:13.794Z,31.06
2023-03-12T20:18:44.279Z,31.06
2023-03-12T20:21:14.320Z,31.02
2023-03-12T20:23:44.128Z,30.99
2023-03-12T20:26:14.187Z,31.00
2023-03-12T20:28:44.594Z,30.96
2023-03-12T20:31:17.896Z,30.97
2023-03-12T20:33:51.240Z,30.95
2023-03-12T20:36:21.381Z,30.92
2023-03-12T20:38:51.977Z,30.93
2023-03-12T20:41:22.249Z,30.94
2023-03-12T20:43:57.022Z,30.90
2023-03-12T20:46:27.696Z,30.93
2023-03-12T20:48:57.871Z,30.92
2023-03-12T20:51:27.765Z,30.92
2023-03-12T20:53:58.282Z,30.92
2023-03-12T20:56:28.490Z,30.94
2023-03-12T20:58:59.373Z,30.96
2023-03-12T21:01:29.903Z,30.92
2023-03-12T21:06:47.191Z,30.90
2023-03-12T21:09:17.320Z,30.91
2023-03-12T21:11:51.756Z,30.93
2023-03-12T21:14:22.465Z,30.91
2023-03-12T21:16:52.658Z,30.90
2023-03-12T21:19:26.168Z,30.89
2023-03-12T21:21:56.151Z,30.86
2023-03-12T21:24:26.175Z,30.77
2023-03-12T21:26:56.182Z,30.74
2023-03-12T21:29:27.635Z,30.74
2023-03-12T21:32:00.020Z,30.71
2023-03-12T21:34:32.658Z,30.67
2023-03-12T21:37:02.893Z,30.67
2023-03-12T21:39:32.833Z,30.67
2023-03-12T21:42:02.952Z,30.67
2023-03-12T21:44:33.043Z,30.58
2023-03-12T21:47:03.307Z,30.60
2023-03-12T21:49:35.771Z,30.56
2023-03-12T21:52:07.385Z,30.59
2023-03-12T21:54:38.998Z,30.56
2023-03-12T21:57:09.128Z,30.57
2023-03-12T21:59:39.256Z,30.49
2023-03-12T22:02:09.882Z,30.51
2023-03-12T22:04:40.080Z,30.53
2023-03-12T22:07:10.848Z,30.50
2023-03-12T22:09:41.195Z,30.41
2023-03-12T22:12:11.681Z,30.32
2023-03-12T22:14:41.669Z,30.23
2023-03-12T22:17:11.564Z,30.22
2023-03-12T22:19:42.125Z,30.16
2023-03-12T22:22:12.421Z,30.10
2023-03-12T22:24:42.575Z,30.10
2023-03-12T22:27:12.473Z,29.98
2023-03-12T22:29:42.495Z,29.95
2023-03-12T22:32:12.431Z,29.94
2023-03-12T22:34:42.990Z,29.94
2023-03-12T22:37:13.039Z,29.93
2023-03-12T22:39:43.187Z,29.96
2023-03-12T22:42:14.576Z,29.89
2023-03-12T22:44:45.054Z,29.92
2023-03-12T22:47:16.605Z,29.86
2023-03-12T22:49:46.706Z,29.73
2023-03-12T22:52:16.617Z,29.60
2023-03-12T22:54:46.429Z,29.68
2023-03-12T22:58:06.177Z,29.73
2023-03-12T23:00:36.229Z,29.77
2023-03-12T23:03:06.169Z,29.78
2023-03-12T23:05:37.508Z,29.78
2023-03-12T23:08:07.263Z,29.80
2023-03-12T23:12:09.417Z,29.91
2023-03-12T23:14:39.674Z,29.88
2023-03-12T23:17:10.992Z,29.89
2023-03-12T23:19:40.993Z,29.93
2023-03-12T23:22:11.486Z,29.98
2023-03-12T23:24:41.570Z,29.99
2023-03-12T23:27:11.484Z,30.03
2023-03-12T23:29:42.391Z,30.03
2023-03-12T23:32:12.548Z,30.10
2023-03-12T23:34:43.581Z,30.06
2023-03-12T23:37:14.401Z,30.06
2023-03-12T23:39:54.117Z,30.05
2023-03-12T23:42:24.977Z,30.05
2023-03-12T23:44:55.031Z,30.05
2023-03-12T23:47:24.899Z,30.06
2023-03-12T23:49:54.814Z,30.04
2023-03-12T23:52:27.958Z,30.08
2023-03-12T23:54:57.942Z,30.12
2023-03-12T23:57:27.849Z,30.08
2023-03-12T23:59:57.825Z,30.08
